createdAt,value
2022-11-18T00:02:14.099Z,17.95
2022-11-18T00:05:38.948Z,17.55
2022-11-18T00:09:01.285Z,20.58
2022-11-18T00:12:42.015Z,21.00
2022-11-18T00:16:07.071Z,18.58
2022-11-18T00:19:32.062Z,19.25
2022-11-18T00:22:54.014Z,18.48
2022-11-18T00:26:16.040Z,17.67
2022-11-18T00:29:38.089Z,20.23
2022-11-18T00:33:00.021Z,18.40
2022-11-18T00:36:22.021Z,17.45
2022-11-18T00:39:43.980Z,16.13
2022-11-18T00:43:05.938Z,15.40
2022-11-18T00:46:27.921Z,15.38
2022-11-18T00:49:49.907Z,16.13
2022-11-18T00:53:12.884Z,14.80
2022-11-18T00:56:34.912Z,15.50
2022-11-18T00:59:56.970Z,15.25
2022-11-18T01:03:20.539Z,14.00
2022-11-18T01:06:42.613Z,14.02
2022-11-18T01:10:05.040Z,13.13
2022-11-18T01:13:31.233Z,12.15
2022-11-18T01:16:57.349Z,13.52
2022-11-18T01:20:19.375Z,12.18
2022-11-18T01:23:41.636Z,13.00
2022-11-18T01:27:04.044Z,10.02
2022-11-18T01:30:26.060Z,11.35
2022-11-18T01:33:47.985Z,11.02
2022-11-18T01:37:12.174Z,10.68
2022-11-18T01:40:35.110Z,11.80
2022-11-18T01:44:00.514Z,10.80
2022-11-18T01:47:23.824Z,10.02
2022-11-18T01:50:52.193Z,10.60
2022-11-18T01:54:20.344Z,9.93
2022-11-18T01:57:44.133Z,11.30
2022-11-18T02:01:07.854Z,10.40
2022-11-18T02:04:29.955Z,11.02
2022-11-18T02:07:52.033Z,9.95
2022-11-18T02:11:34.551Z,10.63
2022-11-18T02:14:56.935Z,9.90
2022-11-18T02:18:39.192Z,10.65
2022-11-18T02:22:44.600Z,10.77
2022-11-18T02:26:47.549Z,10.57
2022-11-18T02:30:13.416Z,11.57
2022-11-18T02:34:01.516Z,12.00
2022-11-18T02:37:36.450Z,13.18
2022-11-18T02:41:23.195Z,15.02
2022-11-18T02:44:50.000Z,13.85
2022-11-18T02:48:13.290Z,12.55
2022-11-18T02:51:36.846Z,12.32
2022-11-18T02:55:00.481Z,14.15
2022-11-18T02:58:23.643Z,13.60
2022-11-18T03:01:45.825Z,14.93
2022-11-18T03:05:18.430Z,15.05
2022-11-18T03:08:50.523Z,15.35
2022-11-18T03:12:31.452Z,17.00
2022-11-18T03:16:06.145Z,16.05
2022-11-18T03:19:44.457Z,15.93
2022-11-18T03:23:15.874Z,19.40
2022-11-18T03:26:41.176Z,21.63
2022-11-18T03:30:08.433Z,21.58
2022-11-18T03:33:38.301Z,23.30
2022-11-18T03:37:09.043Z,24.17
2022-11-18T03:40:35.111Z,23.40
2022-11-18T03:44:11.655Z,23.10
2022-11-18T03:47:41.635Z,22.50
2022-11-18T03:51:13.878Z,23.30
2022-11-18T03:54:38.224Z,22.38
2022-11-18T03:58:24.232Z,22.65
2022-11-18T04:01:57.070Z,22.23
2022-11-18T04:05:20.120Z,23.15
2022-11-18T04:08:45.083Z,24.15
2022-11-18T04:12:13.063Z,23.45
2022-11-18T04:15:39.189Z,24.63
2022-11-18T04:19:06.045Z,22.70
2022-11-18T04:22:28.499Z,26.10
2022-11-18T04:25:50.676Z,25.95
2022-11-18T04:29:12.603Z,24.08
2022-11-18T04:32:35.155Z,27.27
2022-11-18T04:35:59.460Z,28.20
2022-11-18T04:39:21.385Z,28.25
2022-11-18T04:42:43.583Z,29.23
2022-11-18T04:46:05.656Z,29.38
2022-11-18T04:49:28.433Z,30.42
2022-11-18T04:52:50.417Z,29.13
2022-11-18T04:56:12.388Z,27.75
2022-11-18T04:59:34.435Z,30.33
2022-11-18T05:02:56.424Z,28.45
2022-11-18T05:06:21.612Z,28.30
2022-11-18T05:09:43.643Z,30.65
2022-11-18T05:13:05.632Z,31.67
2022-11-18T05:16:27.676Z,29.83
2022-11-18T05:19:49.689Z,30.70
2022-11-18T05:23:11.713Z,29.80
2022-11-18T05:26:33.832Z,32.17
2022-11-18T05:29:55.831Z,31.25
2022-11-18T05:33:17.808Z,30.95
2022-11-18T05:36:40.077Z,31.95
2022-11-18T05:40:02.059Z,30.42
2022-11-18T05:43:25.498Z,32.90
2022-11-18T05:46:47.581Z,32.08
2022-11-18T05:50:09.736Z,30.63
2022-11-18T05:53:31.671Z,32.65
2022-11-18T05:56:53.759Z,32.60
2022-11-18T06:00:16.372Z,32.88
2022-11-18T06:03:40.607Z,34.03
2022-11-18T06:07:14.567Z,30.27
2022-11-18T06:10:40.314Z,33.38
2022-11-18T06:14:08.683Z,33.47
2022-11-18T06:17:36.280Z,31.45
2022-11-18T06:21:04.357Z,34.63
2022-11-18T06:24:26.809Z,32.08
2022-11-18T06:27:50.341Z,32.30
2022-11-18T06:31:12.301Z,33.22
2022-11-18T06:34:39.790Z,32.10
2022-11-18T06:38:03.471Z,33.63
2022-11-18T06:41:25.430Z,35.30
2022-11-18T06:44:47.604Z,33.20
2022-11-18T06:48:09.689Z,33.83
2022-11-18T06:51:31.734Z,33.45
2022-11-18T06:54:53.710Z,34.45
2022-11-18T06:58:15.744Z,32.65
2022-11-18T07:01:40.229Z,34.60
2022-11-18T07:05:02.533Z,32.35
2022-11-18T07:08:24.488Z,34.63
2022-11-18T07:11:46.478Z,34.05
2022-11-18T07:15:09.014Z,33.58
2022-11-18T07:18:33.197Z,30.77
2022-11-18T07:21:55.189Z,31.98
2022-11-18T07:25:17.416Z,33.28
2022-11-18T07:28:39.982Z,32.50
2022-11-18T07:32:01.940Z,32.95
2022-11-18T07:35:23.920Z,30.05
2022-11-18T07:38:47.077Z,30.90
2022-11-18T07:42:10.058Z,31.92
2022-11-18T07:45:32.089Z,31.30
2022-11-18T07:48:56.567Z,32.55
2022-11-18T07:52:18.585Z,30.50
2022-11-18T07:55:40.605Z,28.73
2022-11-18T07:59:02.675Z,31.05
2022-11-18T08:02:24.647Z,29.52
2022-11-18T08:05:46.656Z,30.30
2022-11-18T08:09:09.874Z,32.92
2022-11-18T08:12:31.864Z,30.27
2022-11-18T08:15:55.178Z,31.65
2022-11-18T08:19:17.544Z,29.45
2022-11-18T08:22:42.890Z,31.10
2022-11-18T08:26:05.957Z,32.55
2022-11-18T08:29:28.477Z,33.15
2022-11-18T08:32:50.642Z,31.17
2022-11-18T08:36:18.361Z,31.60
2022-11-18T08:39:40.525Z,30.58
2022-11-18T08:43:02.477Z,30.75
2022-11-18T08:46:24.427Z,32.92
2022-11-18T08:49:48.891Z,35.90
2022-11-18T08:53:10.833Z,36.30
2022-11-18T08:56:32.868Z,39.83
2022-11-18T08:59:54.929Z,42.60
2022-11-18T09:03:16.989Z,45.60
2022-11-18T09:06:40.276Z,48.45
2022-11-18T09:10:02.308Z,42.20
2022-11-18T09:13:49.867Z,41.08
2022-11-18T09:17:06.760Z,34.25
2022-11-18T09:20:28.720Z,29.98
2022-11-18T09:23:50.988Z,29.00
2022-11-18T09:27:17.025Z,25.33
2022-11-18T09:30:39.581Z,25.70
2022-11-18T09:34:01.757Z,23.85
2022-11-18T09:37:23.790Z,24.13
2022-11-18T09:41:03.691Z,25.30
2022-11-18T09:44:41.674Z,23.20
2022-11-18T09:48:17.088Z,24.55
2022-11-18T09:51:45.113Z,23.75
2022-11-18T09:55:18.881Z,22.60
2022-11-18T09:58:45.220Z,23.55
2022-11-18T10:02:34.945Z,25.15
2022-11-18T10:06:16.914Z,25.63
2022-11-18T10:09:41.791Z,25.33
2022-11-18T10:13:20.868Z,23.65
2022-11-18T10:17:01.393Z,26.42
2022-11-18T10:20:32.230Z,24.45
2022-11-18T10:24:01.628Z,25.50
2022-11-18T10:27:39.212Z,27.23
2022-11-18T10:31:11.128Z,24.65
2022-11-18T10:34:36.814Z,23.05
2022-11-18T10:38:13.839Z,22.80
2022-11-18T10:41:51.677Z,23.52
2022-11-18T10:45:24.998Z,24.60
2022-11-18T10:48:47.365Z,23.80
2022-11-18T10:52:14.338Z,24.63
2022-11-18T10:55:36.418Z,21.88
2022-11-18T10:58:58.545Z,23.02
2022-11-18T11:02:35.379Z,21.10
2022-11-18T11:06:21.796Z,21.17
2022-11-18T11:09:43.855Z,21.80
2022-11-18T11:13:15.673Z,22.13
2022-11-18T11:16:47.155Z,22.60
2022-11-18T11:20:22.886Z,22.35
2022-11-18T11:23:46.447Z,23.02
2022-11-18T11:31:17.875Z,22.05
2022-11-18T11:35:02.751Z,19.98
2022-11-18T11:38:49.162Z,20.60
2022-11-18T11:42:13.681Z,20.70
2022-11-18T11:45:52.373Z,21.48
2022-11-18T11:49:18.921Z,20.48
2022-11-18T11:53:26.194Z,19.52
2022-11-18T11:56:56.159Z,19.25
2022-11-18T12:00:20.474Z,17.55
2022-11-18T12:03:46.078Z,18.30
2022-11-18T12:07:43.704Z,16.98
2022-11-18T12:11:24.707Z,16.52
2022-11-18T12:18:34.118Z,16.00
2022-11-18T12:25:47.991Z,15.60
2022-11-18T12:29:19.293Z,16.92
2022-11-18T12:32:46.861Z,15.85
2022-11-18T12:36:09.491Z,15.75
2022-11-18T12:39:31.903Z,18.23
2022-11-18T12:43:12.575Z,17.48
2022-11-18T12:46:45.562Z,17.27
2022-11-18T12:50:15.923Z,18.30
2022-11-18T12:53:43.604Z,19.05
2022-11-18T12:57:28.830Z,17.50
2022-11-18T13:00:53.844Z,18.10
2022-11-18T13:04:22.510Z,17.55
2022-11-18T13:08:11.900Z,16.63
2022-11-18T13:12:03.065Z,18.35
2022-11-18T13:15:43.842Z,18.58
2022-11-18T13:19:09.181Z,19.70
2022-11-18T13:22:49.622Z,22.95
2022-11-18T13:26:20.366Z,18.73
2022-11-18T13:29:56.250Z,19.75
2022-11-18T13:33:18.312Z,19.05
2022-11-18T13:36:44.870Z,19.48
2022-11-18T13:40:19.099Z,19.45
2022-11-18T13:43:41.159Z,20.42
2022-11-18T13:47:25.915Z,19.35
2022-11-18T13:50:54.028Z,19.65
2022-11-18T13:54:24.281Z,19.58
2022-11-18T13:57:50.129Z,20.73
2022-11-18T14:01:25.266Z,19.13
2022-11-18T14:04:54.719Z,19.90
2022-11-18T14:08:37.704Z,19.60
2022-11-18T14:12:07.558Z,19.05
2022-11-18T14:15:32.481Z,18.65
2022-11-18T14:18:54.625Z,19.75
2022-11-18T14:22:25.369Z,18.77
2022-11-18T14:25:47.357Z,21.30
2022-11-18T14:29:23.798Z,20.35
2022-11-18T14:33:13.254Z,18.50
2022-11-18T14:36:35.318Z,19.15
2022-11-18T14:39:58.465Z,19.55
2022-11-18T14:43:20.391Z,19.65
2022-11-18T14:46:44.718Z,19.92
2022-11-18T14:50:13.449Z,18.50
2022-11-18T14:53:35.386Z,20.02
2022-11-18T14:57:04.919Z,18.52
2022-11-18T15:00:26.975Z,19.33
2022-11-18T15:03:48.910Z,20.75
2022-11-18T15:07:22.786Z,19.42
2022-11-18T15:10:45.473Z,19.88
2022-11-18T15:14:07.502Z,18.90
2022-11-18T15:17:29.821Z,20.42
2022-11-18T15:20:52.238Z,19.33
2022-11-18T15:24:14.288Z,19.95
2022-11-18T15:27:36.692Z,21.98
2022-11-18T15:30:58.635Z,19.45
2022-11-18T15:34:21.575Z,20.50
2022-11-18T15:37:44.150Z,20.83
2022-11-18T15:41:06.651Z,20.10
2022-11-18T15:44:28.649Z,20.23
2022-11-18T15:47:54.332Z,22.17
2022-11-18T15:51:16.317Z,20.35
2022-11-18T15:54:38.842Z,33.42
2022-11-18T15:58:00.767Z,30.55
2022-11-18T16:01:23.911Z,25.13
2022-11-18T16:04:46.003Z,24.60
2022-11-18T16:08:07.947Z,22.50
2022-11-18T16:11:48.778Z,21.98
2022-11-18T16:18:58.644Z,20.38
2022-11-18T16:22:20.628Z,23.20
2022-11-18T16:25:46.364Z,21.38
2022-11-18T16:29:10.324Z,23.70
2022-11-18T16:32:32.482Z,24.75
2022-11-18T16:35:54.519Z,26.58
2022-11-18T16:39:27.948Z,23.98
2022-11-18T16:42:51.236Z,21.70
2022-11-18T16:46:13.839Z,23.05
2022-11-18T16:49:35.828Z,21.73
2022-11-18T16:52:58.328Z,22.98
2022-11-18T16:56:28.523Z,22.75
2022-11-18T17:03:12.308Z,24.55
2022-11-18T17:06:34.683Z,25.85
2022-11-18T17:09:56.600Z,28.10
2022-11-18T17:13:18.548Z,26.27
2022-11-18T17:16:40.866Z,26.27
2022-11-18T17:20:03.378Z,24.50
2022-11-18T17:23:28.506Z,25.52
2022-11-18T17:26:52.208Z,24.60
2022-11-18T17:30:14.687Z,25.55
2022-11-18T17:33:37.287Z,25.00
2022-11-18T17:37:04.904Z,25.98
2022-11-18T17:40:28.978Z,26.13
2022-11-18T17:43:57.094Z,25.98
2022-11-18T17:47:19.074Z,27.10
2022-11-18T17:50:41.008Z,26.85
2022-11-18T17:54:05.424Z,26.00
2022-11-18T17:57:27.483Z,26.45
2022-11-18T18:00:49.456Z,25.92
2022-11-18T18:04:11.946Z,27.77
2022-11-18T18:07:34.206Z,29.27
2022-11-18T18:11:02.010Z,33.63
2022-11-18T18:14:23.957Z,31.88
2022-11-18T18:17:48.343Z,30.50
2022-11-18T18:21:13.024Z,29.42
2022-11-18T18:24:35.338Z,32.03
2022-11-18T18:27:57.328Z,29.85
2022-11-18T18:31:19.313Z,31.48
2022-11-18T18:34:41.259Z,29.70
2022-11-18T18:38:03.281Z,30.40
2022-11-18T18:41:25.293Z,28.23
2022-11-18T18:45:05.995Z,27.73
2022-11-18T18:51:50.278Z,35.25
2022-11-18T18:55:12.263Z,31.75
2022-11-18T18:58:34.710Z,29.95
2022-11-18T19:01:56.717Z,27.38
2022-11-18T19:05:18.803Z,27.58
2022-11-18T19:08:40.875Z,30.20
2022-11-18T19:12:21.502Z,29.50
2022-11-18T19:19:06.539Z,31.27
2022-11-18T19:22:33.019Z,31.15
2022-11-18T19:26:01.587Z,33.55
2022-11-18T19:29:25.754Z,30.27
2022-11-18T19:32:47.804Z,30.88
2022-11-18T19:36:10.512Z,28.90
2022-11-18T19:39:32.530Z,30.02
2022-11-18T19:42:54.488Z,28.58
2022-11-18T19:46:16.437Z,43.30
2022-11-18T19:49:38.478Z,36.70
2022-11-18T19:53:20.365Z,30.92
2022-11-18T19:56:42.544Z,33.17
2022-11-18T20:00:04.937Z,30.83
2022-11-18T20:03:31.145Z,28.70
2022-11-18T20:06:53.416Z,26.77
2022-11-18T20:10:15.679Z,28.75
2022-11-18T20:13:39.492Z,29.83
2022-11-18T20:17:01.454Z,29.00
2022-11-18T20:20:23.453Z,30.60
2022-11-18T20:23:46.880Z,28.15
2022-11-18T20:27:08.926Z,26.90
2022-11-18T20:30:32.913Z,27.77
2022-11-18T20:33:56.475Z,25.17
2022-11-18T20:37:18.948Z,27.70
2022-11-18T20:40:40.975Z,27.10
2022-11-18T20:44:06.197Z,31.38
2022-11-18T20:47:28.123Z,32.88
2022-11-18T20:50:50.074Z,30.42
2022-11-18T20:54:12.251Z,28.98
2022-11-18T20:57:34.276Z,28.65
2022-11-18T21:01:01.486Z,31.15
2022-11-18T21:04:23.925Z,27.55
2022-11-18T21:07:46.101Z,29.25
2022-11-18T21:11:10.898Z,28.58
2022-11-18T21:14:32.943Z,27.65
2022-11-18T21:17:54.912Z,25.80
2022-11-18T21:21:35.958Z,25.58
2022-11-18T21:24:57.902Z,24.92
2022-11-18T21:28:19.828Z,24.55
2022-11-18T21:31:42.385Z,22.80
2022-11-18T21:35:04.669Z,22.67
2022-11-18T21:38:26.711Z,22.80
2022-11-18T21:41:54.814Z,21.55
2022-11-18T21:45:18.287Z,20.30
2022-11-18T21:48:40.953Z,19.10
2022-11-18T21:52:02.966Z,24.85
2022-11-18T21:55:24.888Z,20.02
2022-11-18T21:58:48.495Z,21.38
2022-11-18T22:02:14.315Z,20.67
2022-11-18T22:05:36.392Z,21.10
2022-11-18T22:08:58.896Z,20.42
2022-11-18T22:12:20.842Z,21.25
2022-11-18T22:15:42.861Z,19.58
2022-11-18T22:19:08.152Z,19.40
2022-11-18T22:22:30.515Z,20.98
2022-11-18T22:26:19.638Z,20.10
2022-11-18T22:29:41.714Z,20.65
2022-11-18T22:33:03.715Z,19.98
2022-11-18T22:36:27.060Z,19.73
2022-11-18T22:39:49.039Z,21.50
2022-11-18T22:43:11.102Z,19.83
2022-11-18T22:46:33.239Z,20.70
2022-11-18T22:49:56.647Z,19.27
2022-11-18T22:53:18.712Z,20.73
2022-11-18T22:56:40.723Z,21.23
2022-11-18T23:00:03.918Z,19.50
2022-11-18T23:03:25.893Z,20.10
2022-11-18T23:06:49.596Z,18.73
2022-11-18T23:10:11.782Z,20.05
2022-11-18T23:13:53.975Z,19.10
2022-11-18T23:17:16.112Z,19.73
2022-11-18T23:20:38.127Z,18.92
2022-11-18T23:24:00.080Z,19.63
2022-11-18T23:27:22.042Z,20.13
2022-11-18T23:30:44.131Z,20.48
2022-11-18T23:34:06.143Z,19.83
2022-11-18T23:37:28.171Z,18.52
2022-11-18T23:41:01.803Z,20.05
2022-11-18T23:44:43.704Z,18.73
2022-11-18T23:48:05.826Z,18.75
2022-11-18T23:51:30.579Z,20.40
2022-11-18T23:54:54.491Z,17.42
2022-11-18T23:58:17.300Z,18.27
